sensor_id;sensor_type;location;lat;lon;timestamp;pressure;altitude;pressure_sealevel;temperature;humidity
9249;BME280;4660;41.768;26.198;2023-08-17T00:02:23;100670.97;;;23.05;100.00
9249;BME280;4660;41.768;26.198;2023-08-17T00:04:49;100675.56;;;23.12;100.00
9249;BME280;4660;41.768;26.198;2023-08-17T00:07:14;100673.22;;;22.90;100.00
9249;BME280;4660;41.768;26.198;2023-08-17T00:09:40;100671.66;;;22.69;100.00
9249;BME280;4660;41.768;26.198;2023-08-17T00:12:06;100675.53;;;22.55;100.00
9249;BME280;4660;41.768;26.198;2023-08-17T00:14:32;100676.66;;;22.47;100.00
9249;BME280;4660;41.768;26.198;2023-08-17T00:16:57;100671.00;;;22.36;100.00
9249;BME280;4660;41.768;26.198;2023-08-17T00:19:23;100679.50;;;22.28;100.00
9249;BME280;4660;41.768;26.198;2023-08-17T00:21:51;100674.88;;;22.21;100.00
9249;BME280;4660;41.768;26.198;2023-08-17T00:24:17;100664.00;;;22.02;100.00
9249;BME280;4660;41.768;26.198;2023-08-17T00:26:43;100674.53;;;22.11;100.00
9249;BME280;4660;41.768;26.198;2023-08-17T00:29:09;100677.59;;;22.28;100.00
9249;BME280;4660;41.768;26.198;2023-08-17T00:31:34;100678.69;;;22.20;100.00
9249;BME280;4660;41.768;26.198;2023-08-17T00:34:00;100673.22;;;22.07;100.00
9249;BME280;4660;41.768;26.198;2023-08-17T00:36:25;100668.22;;;22.11;100.00
9249;BME280;4660;41.768;26.198;2023-08-17T00:38:51;100664.22;;;22.00;100.00
9249;BME280;4660;41.768;26.198;2023-08-17T00:41:16;100659.19;;;21.97;100.00
9249;BME280;4660;41.768;26.198;2023-08-17T00:43:42;100679.59;;;22.08;100.00
9249;BME280;4660;41.768;26.198;2023-08-17T00:46:07;100673.97;;;21.89;100.00
9249;BME280;4660;41.768;26.198;2023-08-17T00:48:33;100652.66;;;21.91;100.00
9249;BME280;4660;41.768;26.198;2023-08-17T00:51:00;100674.53;;;22.11;100.00
9249;BME280;4660;41.768;26.198;2023-08-17T00:53:29;100676.69;;;21.96;100.00
9249;BME280;4660;41.768;26.198;2023-08-17T00:55:56;100683.81;;;22.10;100.00
9249;BME280;4660;41.768;26.198;2023-08-17T00:58:22;100680.63;;;22.13;100.00
9249;BME280;4660;41.768;26.198;2023-08-17T01:00:48;100673.69;;;22.11;100.00
9249;BME280;4660;41.768;26.198;2023-08-17T01:03:15;100674.50;;;22.18;100.00
9249;BME280;4660;41.768;26.198;2023-08-17T01:05:40;100683.31;;;22.27;100.00
9249;BME280;4660;41.768;26.198;2023-08-17T01:08:06;100671.78;;;22.11;100.00
9249;BME280;4660;41.768;26.198;2023-08-17T01:10:43;100677.09;;;21.93;100.00
9249;BME280;4660;41.768;26.198;2023-08-17T01:13:18;100669.63;;;21.62;100.00
9249;BME280;4660;41.768;26.198;2023-08-17T01:15:50;100655.94;;;21.62;100.00
9249;BME280;4660;41.768;26.198;2023-08-17T01:18:26;100663.50;;;21.66;100.00
9249;BME280;4660;41.768;26.198;2023-08-17T01:20:54;100665.44;;;21.53;100.00
9249;BME280;4660;41.768;26.198;2023-08-17T01:23:20;100659.16;;;21.39;100.00
9249;BME280;4660;41.768;26.198;2023-08-17T01:25:46;100653.06;;;21.37;100.00
9249;BME280;4660;41.768;26.198;2023-08-17T01:28:11;100655.34;;;21.40;100.00
9249;BME280;4660;41.768;26.198;2023-08-17T01:33:14;100657.88;;;21.35;100.00
9249;BME280;4660;41.768;26.198;2023-08-17T01:36:11;100660.19;;;21.25;100.00
9249;BME280;4660;41.768;26.198;2023-08-17T01:38:40;100648.19;;;21.26;100.00
9249;BME280;4660;41.768;26.198;2023-08-17T01:41:07;100648.44;;;21.37;100.00
9249;BME280;4660;41.768;26.198;2023-08-17T01:43:40;100650.50;;;21.42;100.00
9249;BME280;4660;41.768;26.198;2023-08-17T01:46:07;100647.38;;;21.32;100.00
9249;BME280;4660;41.768;26.198;2023-08-17T01:48:33;100658.94;;;21.34;100.00
9249;BME280;4660;41.768;26.198;2023-08-17T01:50:58;100656.63;;;21.37;100.00
9249;BME280;4660;41.768;26.198;2023-08-17T01:53:24;100657.88;;;21.35;100.00
9249;BME280;4660;41.768;26.198;2023-08-17T01:55:49;100648.66;;;21.29;100.00
9249;BME280;4660;41.768;26.198;2023-08-17T01:58:15;100645.47;;;21.39;100.00
9249;BME280;4660;41.768;26.198;2023-08-17T02:00:40;100659.97;;;21.26;100.00
9249;BME280;4660;41.768;26.198;2023-08-17T02:03:06;100658.75;;;21.15;100.00
9249;BME280;4660;41.768;26.198;2023-08-17T02:05:31;100651.16;;;21.11;100.00
9249;BME280;4660;41.768;26.198;2023-08-17T02:07:57;100663.34;;;21.35;100.00
9249;BME280;4660;41.768;26.198;2023-08-17T02:10:23;100657.03;;;21.21;100.00
9249;BME280;4660;41.768;26.198;2023-08-17T02:12:48;100657.03;;;21.14;100.00
9249;BME280;4660;41.768;26.198;2023-08-17T02:15:14;100660.88;;;20.94;100.00
9249;BME280;4660;41.768;26.198;2023-08-17T02:17:39;100661.06;;;20.85;100.00
9249;BME280;4660;41.768;26.198;2023-08-17T02:20:05;100651.19;;;20.65;100.00
9249;BME280;4660;41.768;26.198;2023-08-17T02:22:31;100643.38;;;20.61;100.00
9249;BME280;4660;41.768;26.198;2023-08-17T02:24:57;100655.38;;;20.74;100.00
9249;BME280;4660;41.768;26.198;2023-08-17T02:27:23;100659.59;;;20.76;100.00
9249;BME280;4660;41.768;26.198;2023-08-17T02:29:48;100655.78;;;20.77;100.00
9249;BME280;4660;41.768;26.198;2023-08-17T02:32:14;100659.38;;;20.78;100.00
9249;BME280;4660;41.768;26.198;2023-08-17T02:34:39;100666.31;;;20.74;100.00
9249;BME280;4660;41.768;26.198;2023-08-17T02:37:05;100673.47;;;20.75;100.00
9249;BME280;4660;41.768;26.198;2023-08-17T02:39:30;100659.38;;;20.65;100.00
9249;BME280;4660;41.768;26.198;2023-08-17T02:41:56;100668.00;;;20.75;100.00
9249;BME280;4660;41.768;26.198;2023-08-17T02:44:21;100670.50;;;20.70;100.00
9249;BME280;4660;41.768;26.198;2023-08-17T02:46:47;100670.94;;;20.60;100.00
9249;BME280;4660;41.768;26.198;2023-08-17T02:49:12;100676.78;;;20.57;100.00
9249;BME280;4660;41.768;26.198;2023-08-17T02:51:38;100664.00;;;20.51;100.00
9249;BME280;4660;41.768;26.198;2023-08-17T02:54:04;100678.28;;;20.59;100.00
9249;BME280;4660;41.768;26.198;2023-08-17T02:56:29;100664.41;;;20.54;100.00
9249;BME280;4660;41.768;26.198;2023-08-17T02:58:55;100662.09;;;20.51;100.00
9249;BME280;4660;41.768;26.198;2023-08-17T03:01:20;100669.25;;;20.66;100.00
9249;BME280;4660;41.768;26.198;2023-08-17T03:03:46;100664.63;;;20.73;100.00
9249;BME280;4660;41.768;26.198;2023-08-17T03:06:11;100674.75;;;20.72;100.00
9249;BME280;4660;41.768;26.198;2023-08-17T03:08:37;100673.91;;;20.72;100.00
9249;BME280;4660;41.768;26.198;2023-08-17T03:11:02;100657.03;;;20.55;100.00
9249;BME280;4660;41.768;26.198;2023-08-17T03:13:28;100675.06;;;20.43;100.00
9249;BME280;4660;41.768;26.198;2023-08-17T03:15:54;100679.25;;;20.39;100.00
9249;BME280;4660;41.768;26.198;2023-08-17T03:18:20;100679.88;;;20.34;100.00
9249;BME280;4660;41.768;26.198;2023-08-17T03:20:45;100667.88;;;20.22;100.00
9249;BME280;4660;41.768;26.198;2023-08-17T03:23:11;100672.50;;;20.28;100.00
9249;BME280;4660;41.768;26.198;2023-08-17T03:25:37;100666.59;;;20.18;100.00
9249;BME280;4660;41.768;26.198;2023-08-17T03:28:03;100688.91;;;20.34;100.00
9249;BME280;4660;41.768;26.198;2023-08-17T03:30:29;100676.81;;;20.50;100.00
9249;BME280;4660;41.768;26.198;2023-08-17T03:32:54;100672.59;;;20.48;100.00
9249;BME280;4660;41.768;26.198;2023-08-17T03:35:20;100681.63;;;20.48;100.00
9249;BME280;4660;41.768;26.198;2023-08-17T03:37:45;100700.34;;;20.51;100.00
9249;BME280;4660;41.768;26.198;2023-08-17T03:40:11;100682.41;;;20.42;100.00
9249;BME280;4660;41.768;26.198;2023-08-17T03:42:37;100680.09;;;20.39;100.00
9249;BME280;4660;41.768;26.198;2023-08-17T03:45:03;100693.41;;;20.49;100.00
9249;BME280;4660;41.768;26.198;2023-08-17T03:47:29;100680.19;;;20.66;100.00
9249;BME280;4660;41.768;26.198;2023-08-17T03:49:54;100685.44;;;20.60;100.00
9249;BME280;4660;41.768;26.198;2023-08-17T03:52:20;100698.25;;;20.60;100.00
9249;BME280;4660;41.768;26.198;2023-08-17T03:54:45;100702.38;;;20.43;100.00
9249;BME280;4660;41.768;26.198;2023-08-17T03:57:12;100696.56;;;20.52;100.00
9249;BME280;4660;41.768;26.198;2023-08-17T03:59:37;100689.88;;;20.75;100.00
9249;BME280;4660;41.768;26.198;2023-08-17T04:02:03;100653.69;;;20.59;100.00
9249;BME280;4660;41.768;26.198;2023-08-17T04:04:28;100677.66;;;20.71;100.00
9249;BME280;4660;41.768;26.198;2023-08-17T04:06:54;100691.56;;;20.76;100.00
9249;BME280;4660;41.768;26.198;2023-08-17T04:09:20;100712.19;;;20.72;100.00
9249;BME280;4660;41.768;26.198;2023-08-17T04:11:45;100710.06;;;21.00;100.00
9249;BME280;4660;41.768;26.198;2023-08-17T04:14:11;100704.41;;;21.08;100.00
9249;BME280;4660;41.768;26.198;2023-08-17T04:16:37;100717.25;;;21.01;100.00
9249;BME280;4660;41.768;26.198;2023-08-17T04:19:03;100708.81;;;21.03;100.00
9249;BME280;4660;41.768;26.198;2023-08-17T04:21:29;100705.44;;;21.07;100.00
9249;BME280;4660;41.768;26.198;2023-08-17T04:23:55;100703.13;;;21.04;100.00
9249;BME280;4660;41.768;26.198;2023-08-17T04:26:21;100699.13;;;21.07;100.00
9249;BME280;4660;41.768;26.198;2023-08-17T04:28:47;100704.19;;;21.16;100.00
9249;BME280;4660;41.768;26.198;2023-08-17T04:31:13;100702.31;;;21.24;100.00
9249;BME280;4660;41.768;26.198;2023-08-17T04:33:39;100706.28;;;21.21;100.00
9249;BME280;4660;41.768;26.198;2023-08-17T04:36:05;100705.25;;;21.22;100.00
9249;BME280;4660;41.768;26.198;2023-08-17T04:38:30;100694.94;;;21.17;100.00
9249;BME280;4660;41.768;26.198;2023-08-17T04:40:56;100685.22;;;21.22;100.00
9249;BME280;4660;41.768;26.198;2023-08-17T04:43:22;100695.78;;;21.38;100.00
9249;BME280;4660;41.768;26.198;2023-08-17T04:45:48;100711.78;;;21.41;100.00
9249;BME280;4660;41.768;26.198;2023-08-17T04:48:14;100696.63;;;21.52;100.00
9249;BME280;4660;41.768;26.198;2023-08-17T04:50:39;100701.44;;;21.56;100.00
9249;BME280;4660;41.768;26.198;2023-08-17T04:53:05;100710.06;;;21.66;100.00
9249;BME280;4660;41.768;26.198;2023-08-17T04:55:31;100711.75;;;21.67;100.00
9249;BME280;4660;41.768;26.198;2023-08-17T04:57:57;100710.06;;;21.66;100.00
9249;BME280;4660;41.768;26.198;2023-08-17T05:00:23;100702.47;;;21.68;100.00
9249;BME280;4660;41.768;26.198;2023-08-17T05:02:56;100672.56;;;21.67;100.00
9249;BME280;4660;41.768;26.198;2023-08-17T05:05:23;100715.44;;;21.93;100.00
9249;BME280;4660;41.768;26.198;2023-08-17T05:07:49;100684.75;;;21.78;100.00
9249;BME280;4660;41.768;26.198;2023-08-17T05:10:14;100699.72;;;21.75;100.00
9249;BME280;4660;41.768;26.198;2023-08-17T05:12:40;100702.44;;;21.82;100.00
9249;BME280;4660;41.768;26.198;2023-08-17T05:15:06;100702.81;;;21.92;100.00
9249;BME280;4660;41.768;26.198;2023-08-17T05:17:32;100687.63;;;22.09;100.00
9249;BME280;4660;41.768;26.198;2023-08-17T05:19:57;100695.09;;;22.27;100.00
9249;BME280;4660;41.768;26.198;2023-08-17T05:22:23;100698.56;;;22.16;100.00
9249;BME280;4660;41.768;26.198;2023-08-17T05:24:48;100692.41;;;22.20;100.00
9249;BME280;4660;41.768;26.198;2023-08-17T05:27:14;100699.41;;;22.48;100.00
9249;BME280;4660;41.768;26.198;2023-08-17T05:29:39;100689.44;;;22.60;100.00
9249;BME280;4660;41.768;26.198;2023-08-17T05:32:05;100696.78;;;22.66;100.00
9249;BME280;4660;41.768;26.198;2023-08-17T05:34:31;100697.34;;;22.75;100.00
9249;BME280;4660;41.768;26.198;2023-08-17T05:36:56;100697.53;;;22.87;100.00
9249;BME280;4660;41.768;26.198;2023-08-17T05:39:22;100691.06;;;22.99;100.00
9249;BME280;4660;41.768;26.198;2023-08-17T05:41:48;100696.56;;;23.24;100.00
9249;BME280;4660;41.768;26.198;2023-08-17T05:44:13;100691.56;;;23.40;100.00
9249;BME280;4660;41.768;26.198;2023-08-17T05:46:40;100686.16;;;23.51;100.00
9249;BME280;4660;41.768;26.198;2023-08-17T05:49:06;100701.25;;;23.67;100.00
9249;BME280;4660;41.768;26.198;2023-08-17T05:51:31;100686.72;;;23.78;100.00
9249;BME280;4660;41.768;26.198;2023-08-17T05:53:57;100706.88;;;23.91;100.00
9249;BME280;4660;41.768;26.198;2023-08-17T05:56:23;100688.41;;;23.98;100.00
9249;BME280;4660;41.768;26.198;2023-08-17T05:58:49;100680.75;;;24.00;100.00
9249;BME280;4660;41.768;26.198;2023-08-17T06:01:14;100694.19;;;24.26;100.00
9249;BME280;4660;41.768;26.198;2023-08-17T06:03:40;100685.94;;;24.45;100.00
9249;BME280;4660;41.768;26.198;2023-08-17T06:06:06;100704.84;;;24.53;100.00
9249;BME280;4660;41.768;26.198;2023-08-17T06:08:32;100675.03;;;24.50;100.00
9249;BME280;4660;41.768;26.198;2023-08-17T06:10:58;100662.66;;;24.59;100.00
9249;BME280;4660;41.768;26.198;2023-08-17T06:13:29;100698.38;;;24.89;100.00
9249;BME280;4660;41.768;26.198;2023-08-17T06:15:56;100694.84;;;25.12;100.00
9249;BME280;4660;41.768;26.198;2023-08-17T06:18:22;100689.59;;;25.34;100.00
9249;BME280;4660;41.768;26.198;2023-08-17T06:20:47;100691.25;;;25.35;100.00
9249;BME280;4660;41.768;26.198;2023-08-17T06:23:16;100682.78;;;25.36;100.00
9249;BME280;4660;41.768;26.198;2023-08-17T06:25:41;100655.22;;;25.24;100.00
9249;BME280;4660;41.768;26.198;2023-08-17T06:28:07;100696.16;;;25.68;100.00
9249;BME280;4660;41.768;26.198;2023-08-17T06:30:32;100698.44;;;25.94;100.00
9249;BME280;4660;41.768;26.198;2023-08-17T06:32:58;100689.53;;;26.04;100.00
9249;BME280;4660;41.768;26.198;2023-08-17T06:35:24;100692.13;;;26.22;100.00
9249;BME280;4660;41.768;26.198;2023-08-17T06:37:50;100695.78;;;26.28;100.00
9249;BME280;4660;41.768;26.198;2023-08-17T06:40:16;100697.00;;;26.32;100.00
9249;BME280;4660;41.768;26.198;2023-08-17T06:42:42;100693.97;;;26.45;100.00
9249;BME280;4660;41.768;26.198;2023-08-17T06:45:07;100684.06;;;26.61;100.00
9249;BME280;4660;41.768;26.198;2023-08-17T06:47:33;100682.75;;;26.80;100.00
9249;BME280;4660;41.768;26.198;2023-08-17T06:49:59;100687.03;;;26.88;100.00
9249;BME280;4660;41.768;26.198;2023-08-17T06:52:24;100667.84;;;26.98;100.00
9249;BME280;4660;41.768;26.198;2023-08-17T06:54:50;100674.66;;;27.24;100.00
9249;BME280;4660;41.768;26.198;2023-08-17T06:57:15;100670.19;;;27.40;100.00
9249;BME280;4660;41.768;26.198;2023-08-17T06:59:41;100676.06;;;27.43;100.00
9249;BME280;4660;41.768;26.198;2023-08-17T07:02:07;100677.88;;;27.55;100.00
9249;BME280;4660;41.768;26.198;2023-08-17T07:04:32;100675.50;;;27.63;100.00
9249;BME280;4660;41.768;26.198;2023-08-17T07:06:58;100670.50;;;27.60;100.00
9249;BME280;4660;41.768;26.198;2023-08-17T07:09:25;100660.69;;;27.69;99.66
9249;BME280;4660;41.768;26.198;2023-08-17T07:11:53;100675.75;;;28.01;99.66
9249;BME280;4660;41.768;26.198;2023-08-17T07:14:18;100666.81;;;28.15;99.62
9249;BME280;4660;41.768;26.198;2023-08-17T07:16:44;100659.06;;;28.17;99.85
9249;BME280;4660;41.768;26.198;2023-08-17T07:19:09;100678.13;;;28.63;96.41
9249;BME280;4660;41.768;26.198;2023-08-17T07:21:35;100672.28;;;28.59;95.30
9249;BME280;4660;41.768;26.198;2023-08-17T07:24:15;100669.22;;;28.88;94.66
9249;BME280;4660;41.768;26.198;2023-08-17T07:26:41;100657.97;;;28.94;94.45
9249;BME280;4660;41.768;26.198;2023-08-17T07:29:07;100658.09;;;29.15;92.54
9249;BME280;4660;41.768;26.198;2023-08-17T07:31:33;100652.56;;;29.15;92.74
9249;BME280;4660;41.768;26.198;2023-08-17T07:34:01;100656.09;;;29.47;85.97
9249;BME280;4660;41.768;26.198;2023-08-17T07:36:26;100654.94;;;29.80;81.03
9249;BME280;4660;41.768;26.198;2023-08-17T07:38:52;100677.81;;;30.08;80.06
9249;BME280;4660;41.768;26.198;2023-08-17T07:41:17;100672.88;;;30.25;75.58
9249;BME280;4660;41.768;26.198;2023-08-17T07:43:43;100661.81;;;30.56;74.70
9249;BME280;4660;41.768;26.198;2023-08-17T07:46:09;100672.41;;;30.59;72.44
9249;BME280;4660;41.768;26.198;2023-08-17T07:48:36;100670.22;;;30.81;70.54
9249;BME280;4660;41.768;26.198;2023-08-17T07:51:01;100669.69;;;30.94;70.04
9249;BME280;4660;41.768;26.198;2023-08-17T07:53:28;100646.34;;;31.01;69.76
9249;BME280;4660;41.768;26.198;2023-08-17T07:55:53;100678.00;;;31.00;69.28
9249;BME280;4660;41.768;26.198;2023-08-17T07:58:19;100658.28;;;30.91;69.98
9249;BME280;4660;41.768;26.198;2023-08-17T08:00:45;100660.50;;;31.04;70.42
9249;BME280;4660;41.768;26.198;2023-08-17T08:03:12;100658.00;;;31.28;68.49
9249;BME280;4660;41.768;26.198;2023-08-17T08:05:37;100649.94;;;31.27;67.64
9249;BME280;4660;41.768;26.198;2023-08-17T08:08:03;100655.78;;;31.30;67.13
9249;BME280;4660;41.768;26.198;2023-08-17T08:10:29;100656.59;;;31.41;65.91
9249;BME280;4660;41.768;26.198;2023-08-17T08:12:55;100672.41;;;31.56;65.17
9249;BME280;4660;41.768;26.198;2023-08-17T08:15:20;100632.97;;;31.38;64.37
9249;BME280;4660;41.768;26.198;2023-08-17T08:17:46;100659.31;;;31.56;64.81
9249;BME280;4660;41.768;26.198;2023-08-17T08:20:12;100658.19;;;31.57;64.94
9249;BME280;4660;41.768;26.198;2023-08-17T08:22:37;100652.69;;;31.52;64.70
9249;BME280;4660;41.768;26.198;2023-08-17T08:25:03;100654.59;;;31.62;63.40
9249;BME280;4660;41.768;26.198;2023-08-17T08:27:29;100652.38;;;31.54;65.06
9249;BME280;4660;41.768;26.198;2023-08-17T08:29:54;100639.00;;;31.61;63.02
9249;BME280;4660;41.768;26.198;2023-08-17T08:32:22;100645.34;;;31.71;62.98
9249;BME280;4660;41.768;26.198;2023-08-17T08:34:47;100652.09;;;31.65;63.53
9249;BME280;4660;41.768;26.198;2023-08-17T08:37:13;100635.63;;;31.79;63.53
9249;BME280;4660;41.768;26.198;2023-08-17T08:39:52;100639.41;;;32.03;63.55
9249;BME280;4660;41.768;26.198;2023-08-17T08:42:22;100656.09;;;32.09;62.15
9249;BME280;4660;41.768;26.198;2023-08-17T08:44:49;100652.50;;;32.03;63.56
9249;BME280;4660;41.768;26.198;2023-08-17T08:47:17;100646.25;;;32.26;62.55
9249;BME280;4660;41.768;26.198;2023-08-17T08:50:03;100626.22;;;32.24;62.12
9249;BME280;4660;41.768;26.198;2023-08-17T08:52:36;100637.88;;;32.37;62.12
9249;BME280;4660;41.768;26.198;2023-08-17T08:55:11;100639.72;;;32.51;61.90
9249;BME280;4660;41.768;26.198;2023-08-17T08:57:39;100634.09;;;32.56;61.55
9249;BME280;4660;41.768;26.198;2023-08-17T09:00:06;100634.91;;;32.62;61.16
9249;BME280;4660;41.768;26.198;2023-08-17T09:02:33;100629.50;;;32.76;60.51
9249;BME280;4660;41.768;26.198;2023-08-17T09:04:59;100639.97;;;32.94;58.88
9249;BME280;4660;41.768;26.198;2023-08-17T09:07:29;100634.34;;;32.60;58.72
9249;BME280;4660;41.768;26.198;2023-08-17T09:09:55;100617.47;;;32.46;60.40
9249;BME280;4660;41.768;26.198;2023-08-17T09:12:22;100612.13;;;32.50;60.72
9249;BME280;4660;41.768;26.198;2023-08-17T09:14:47;100631.25;;;32.67;61.31
9249;BME280;4660;41.768;26.198;2023-08-17T09:17:13;100624.88;;;32.61;61.37
9249;BME280;4660;41.768;26.198;2023-08-17T09:19:40;100628.50;;;32.62;60.40
9249;BME280;4660;41.768;26.198;2023-08-17T09:22:05;100624.59;;;32.57;60.40
9249;BME280;4660;41.768;26.198;2023-08-17T09:24:37;100612.38;;;32.58;62.17
9249;BME280;4660;41.768;26.198;2023-08-17T09:27:04;100615.56;;;32.76;60.67
9249;BME280;4660;41.768;26.198;2023-08-17T09:29:34;100612.38;;;32.93;60.52
9249;BME280;4660;41.768;26.198;2023-08-17T09:32:06;100600.84;;;33.04;59.37
9249;BME280;4660;41.768;26.198;2023-08-17T09:34:32;100609.72;;;33.06;59.81
9249;BME280;4660;41.768;26.198;2023-08-17T09:37:05;100596.22;;;33.19;59.74
9249;BME280;4660;41.768;26.198;2023-08-17T09:39:33;100607.88;;;33.50;59.19
9249;BME280;4660;41.768;26.198;2023-08-17T09:42:00;100615.69;;;33.53;58.81
9249;BME280;4660;41.768;26.198;2023-08-17T09:44:26;100610.03;;;33.58;58.19
9249;BME280;4660;41.768;26.198;2023-08-17T09:46:56;100607.22;;;33.34;58.33
9249;BME280;4660;41.768;26.198;2023-08-17T09:49:24;100599.38;;;33.36;58.61
9249;BME280;4660;41.768;26.198;2023-08-17T09:51:50;100608.25;;;33.67;58.52
9249;BME280;4660;41.768;26.198;2023-08-17T09:54:24;100594.47;;;33.76;58.46
9249;BME280;4660;41.768;26.198;2023-08-17T09:56:53;100601.59;;;33.87;57.36
9249;BME280;4660;41.768;26.198;2023-08-17T09:59:20;100593.31;;;33.58;58.23
9249;BME280;4660;41.768;26.198;2023-08-17T10:01:49;100607.06;;;33.49;58.62
9249;BME280;4660;41.768;26.198;2023-08-17T10:04:21;100595.22;;;33.57;58.50
9249;BME280;4660;41.768;26.198;2023-08-17T10:06:56;100599.25;;;33.70;59.92
9249;BME280;4660;41.768;26.198;2023-08-17T10:09:31;100585.41;;;33.84;59.02
9249;BME280;4660;41.768;26.198;2023-08-17T10:14:58;100489.97;;;33.63;57.81
9249;BME280;4660;41.768;26.198;2023-08-17T10:17:35;100548.63;;;34.19;55.69
9249;BME280;4660;41.768;26.198;2023-08-17T10:20:04;100558.44;;;33.79;56.64
9249;BME280;4660;41.768;26.198;2023-08-17T10:22:56;100560.59;;;33.82;58.13
9249;BME280;4660;41.768;26.198;2023-08-17T10:28:19;100559.88;;;34.14;56.13
9249;BME280;4660;41.768;26.198;2023-08-17T10:30:48;100573.22;;;34.36;55.94
9249;BME280;4660;41.768;26.198;2023-08-17T10:33:15;100546.06;;;34.42;54.66
9249;BME280;4660;41.768;26.198;2023-08-17T10:35:41;100564.53;;;34.38;54.80
9249;BME280;4660;41.768;26.198;2023-08-17T10:38:07;100573.84;;;34.52;53.09
9249;BME280;4660;41.768;26.198;2023-08-17T10:40:42;100578.53;;;34.70;52.60
9249;BME280;4660;41.768;26.198;2023-08-17T10:43:12;100533.81;;;34.38;52.71
9249;BME280;4660;41.768;26.198;2023-08-17T10:45:38;100548.59;;;34.57;53.16
9249;BME280;4660;41.768;26.198;2023-08-17T10:50:33;100562.53;;;35.22;50.60
9249;BME280;4660;41.768;26.198;2023-08-17T10:53:04;100563.34;;;35.09;49.01
9249;BME280;4660;41.768;26.198;2023-08-17T10:55:38;100567.72;;;35.15;49.86
9249;BME280;4660;41.768;26.198;2023-08-17T10:58:05;100572.56;;;35.10;49.66
9249;BME280;4660;41.768;26.198;2023-08-17T11:00:35;100564.75;;;34.93;48.52
9249;BME280;4660;41.768;26.198;2023-08-17T11:03:10;100530.13;;;34.75;49.50
9249;BME280;4660;41.768;26.198;2023-08-17T11:05:48;100562.59;;;35.03;47.81
9249;BME280;4660;41.768;26.198;2023-08-17T11:08:23;100552.88;;;35.01;47.98
9249;BME280;4660;41.768;26.198;2023-08-17T11:13:42;100554.13;;;35.22;47.12
9249;BME280;4660;41.768;26.198;2023-08-17T11:16:08;100536.63;;;35.03;47.15
9249;BME280;4660;41.768;26.198;2023-08-17T11:18:35;100547.47;;;34.91;48.74
9249;BME280;4660;41.768;26.198;2023-08-17T11:21:14;100518.03;;;34.80;49.09
9249;BME280;4660;41.768;26.198;2023-08-17T11:23:40;100536.63;;;35.17;48.35
9249;BME280;4660;41.768;26.198;2023-08-17T11:26:10;100527.81;;;35.23;45.69
9249;BME280;4660;41.768;26.198;2023-08-17T11:28:37;100542.94;;;35.50;45.32
9249;BME280;4660;41.768;26.198;2023-08-17T11:31:10;100534.66;;;35.72;43.68
9249;BME280;4660;41.768;26.198;2023-08-17T11:33:47;100534.28;;;35.88;43.49
9249;BME280;4660;41.768;26.198;2023-08-17T11:36:13;100530.94;;;35.99;43.16
9249;BME280;4660;41.768;26.198;2023-08-17T11:38:40;100538.19;;;36.00;42.88
9249;BME280;4660;41.768;26.198;2023-08-17T11:41:07;100531.78;;;36.00;43.09
9249;BME280;4660;41.768;26.198;2023-08-17T11:43:34;100516.13;;;35.85;43.58
9249;BME280;4660;41.768;26.198;2023-08-17T11:46:01;100532.97;;;35.71;44.30
9249;BME280;4660;41.768;26.198;2023-08-17T11:48:28;100521.91;;;35.66;44.42
9249;BME280;4660;41.768;26.198;2023-08-17T11:50:54;100516.63;;;35.37;44.17
9249;BME280;4660;41.768;26.198;2023-08-17T11:53:24;100499.31;;;35.21;44.21
9249;BME280;4660;41.768;26.198;2023-08-17T11:55:56;100514.34;;;35.53;44.33
9249;BME280;4660;41.768;26.198;2023-08-17T11:58:42;100495.25;;;35.69;42.89
9249;BME280;4660;41.768;26.198;2023-08-17T12:01:09;100506.06;;;35.48;42.89
9249;BME280;4660;41.768;26.198;2023-08-17T12:03:36;100506.97;;;35.57;42.92
9249;BME280;4660;41.768;26.198;2023-08-17T12:06:02;100520.06;;;35.84;42.64
9249;BME280;4660;41.768;26.198;2023-08-17T12:08:29;100499.41;;;35.57;42.91
9249;BME280;4660;41.768;26.198;2023-08-17T12:10:54;100521.19;;;35.47;42.55
9249;BME280;4660;41.768;26.198;2023-08-17T12:13:20;100504.19;;;35.43;42.31
9249;BME280;4660;41.768;26.198;2023-08-17T12:15:55;100501.94;;;35.45;43.08
9249;BME280;4660;41.768;26.198;2023-08-17T12:18:23;100487.41;;;35.29;42.81
9249;BME280;4660;41.768;26.198;2023-08-17T12:20:53;100504.16;;;35.57;43.35
9249;BME280;4660;41.768;26.198;2023-08-17T12:23:20;100506.19;;;35.79;43.10
9249;BME280;4660;41.768;26.198;2023-08-17T12:25:55;100509.31;;;35.77;42.93
9249;BME280;4660;41.768;26.198;2023-08-17T12:28:25;100517.78;;;36.00;41.87
9249;BME280;4660;41.768;26.198;2023-08-17T12:31:01;100489.25;;;35.98;41.97
9249;BME280;4660;41.768;26.198;2023-08-17T12:33:27;100498.44;;;36.34;41.64
9249;BME280;4660;41.768;26.198;2023-08-17T12:35:55;100512.13;;;36.36;41.53
9249;BME280;4660;41.768;26.198;2023-08-17T12:38:23;100492.78;;;36.26;41.56
9249;BME280;4660;41.768;26.198;2023-08-17T12:40:49;100504.25;;;36.16;40.65
9249;BME280;4660;41.768;26.198;2023-08-17T12:43:16;100501.25;;;36.12;40.22
9249;BME280;4660;41.768;26.198;2023-08-17T12:45:56;100511.69;;;36.20;39.86
9249;BME280;4660;41.768;26.198;2023-08-17T12:48:47;100506.28;;;36.24;39.85
9249;BME280;4660;41.768;26.198;2023-08-17T12:51:16;100502.13;;;35.99;39.43
9249;BME280;4660;41.768;26.198;2023-08-17T12:53:42;100490.16;;;36.07;39.99
9249;BME280;4660;41.768;26.198;2023-08-17T12:56:10;100514.25;;;36.08;40.04
9249;BME280;4660;41.768;26.198;2023-08-17T12:58:36;100517.53;;;36.10;38.44
9249;BME280;4660;41.768;26.198;2023-08-17T13:01:04;100511.78;;;35.93;38.07
9249;BME280;4660;41.768;26.198;2023-08-17T13:03:29;100512.69;;;35.66;37.63
9249;BME280;4660;41.768;26.198;2023-08-17T13:05:55;100508.50;;;35.63;37.39
9249;BME280;4660;41.768;26.198;2023-08-17T13:08:21;100512.03;;;35.69;37.28
9249;BME280;4660;41.768;26.198;2023-08-17T13:10:46;100525.06;;;35.87;38.41